Time;durP1;ratioP1;P1;durP2;ratioP2;P2;SDS_P1;SDS_P2;PMS_P1;PMS_P2;Temp;Humidity;BMP_temperature;BMP_pressure;BME280_temperature;BME280_humidity;BME280_pressure;Samples;Min_cycle;Max_cycle;Signal;HPM_P1;HPM_P2
2022/12/02 00:01:40;;;;;;;1.55;1.45;;;17.70;74.60;;;;;;4962174;28;20038;-72
2022/12/02 00:04:19;;;;;;;1.67;1.50;;;17.70;74.60;;;;;;4978470;28;20038;-72
2022/12/02 00:06:45;;;;;;;2.55;1.50;;;17.70;74.60;;;;;;4978157;28;20050;-72
2022/12/02 00:09:32;;;;;;;1.65;1.55;;;17.70;74.70;;;;;;4963617;28;20031;-73
2022/12/02 00:11:59;;;;;;;1.67;1.58;;;17.70;74.70;;;;;;4958764;28;20430;-72
2022/12/02 00:14:29;;;;;;;2.50;1.70;;;17.70;74.60;;;;;;4959073;28;20114;-73
2022/12/02 00:16:55;;;;;;;10.20;2.00;;;17.70;74.60;;;;;;4958721;28;20031;-73
2022/12/02 00:19:21;;;;;;;2.10;1.60;;;17.70;74.60;;;;;;4961196;28;20465;-73
2022/12/02 00:21:47;;;;;;;1.55;1.45;;;17.70;74.70;;;;;;4961680;28;20080;-73
2022/12/02 00:24:12;;;;;;;1.52;1.42;;;17.70;74.70;;;;;;4977910;28;20495;-73
2022/12/02 00:26:38;;;;;;;2.00;1.80;;;17.70;74.70;;;;;;4977754;28;20035;-73
2022/12/02 00:29:04;;;;;;;1.67;1.58;;;17.70;74.80;;;;;;4995239;28;20018;-73
2022/12/02 00:31:29;;;;;;;2.08;1.67;;;17.70;74.80;;;;;;4995083;28;20030;-73
2022/12/02 00:33:56;;;;;;;1.60;1.20;;;17.70;74.90;;;;;;4977644;28;20124;-73
2022/12/02 00:36:22;;;;;;;1.83;1.63;;;17.70;75.00;;;;;;4977990;28;20113;-73
2022/12/02 00:38:48;;;;;;;1.80;1.63;;;17.70;75.00;;;;;;4977880;28;20097;-73
2022/12/02 00:41:14;;;;;;;1.90;1.70;;;17.70;74.80;;;;;;4977277;28;20030;-72
2022/12/02 00:46:32;;;;;;;1.60;1.50;;;17.70;75.00;;;;;;4994977;28;20496;-72
2022/12/02 00:49:06;;;;;;;1.83;1.70;;;17.70;75.00;;;;;;4994774;28;20026;-72
2022/12/02 00:51:32;;;;;;;2.30;1.58;;;17.70;75.20;;;;;;4978483;28;20022;-72
2022/12/02 00:53:58;;;;;;;1.75;1.65;;;17.70;75.00;;;;;;4977254;28;20137;-72
2022/12/02 00:56:24;;;;;;;3.97;1.75;;;17.70;75.00;;;;;;4994684;28;20121;-72
2022/12/02 00:58:49;;;;;;;3.75;1.60;;;17.70;75.00;;;;;;4960960;28;20034;-72
2022/12/02 01:01:15;;;;;;;1.80;1.55;;;17.70;75.00;;;;;;4977137;28;20036;-72
2022/12/02 01:03:41;;;;;;;2.25;1.50;;;17.70;75.00;;;;;;4961067;28;20053;-72
2022/12/02 01:06:06;;;;;;;3.10;1.92;;;17.70;75.00;;;;;;4981555;28;20047;-72
2022/12/02 01:08:32;;;;;;;1.85;1.67;;;17.70;75.10;;;;;;4970517;28;20030;-72
2022/12/02 01:10:58;;;;;;;1.73;1.63;;;17.70;75.10;;;;;;4976886;28;20049;-72
2022/12/02 01:13:24;;;;;;;2.65;1.67;;;17.70;75.10;;;;;;4977091;28;20508;-73
2022/12/02 01:15:50;;;;;;;2.78;1.60;;;17.70;75.20;;;;;;4994485;28;20129;-73
2022/12/02 01:18:16;;;;;;;1.88;1.67;;;17.70;75.20;;;;;;4976914;28;20544;-73
2022/12/02 01:20:42;;;;;;;2.20;1.60;;;17.70;75.20;;;;;;4976836;28;20031;-73
2022/12/02 01:23:07;;;;;;;3.33;1.70;;;17.70;75.10;;;;;;4976934;28;20786;-72
2022/12/02 01:25:33;;;;;;;1.83;1.70;;;17.70;75.20;;;;;;4976588;28;20026;-72
2022/12/02 01:27:59;;;;;;;1.90;1.80;;;17.70;75.20;;;;;;4976741;28;20030;-72
2022/12/02 01:30:24;;;;;;;3.53;1.80;;;17.70;75.20;;;;;;4976948;28;20033;-72
2022/12/02 01:32:50;;;;;;;2.10;1.80;;;17.70;75.20;;;;;;4993378;28;20572;-73
2022/12/02 01:35:16;;;;;;;6.47;2.10;;;17.60;75.20;;;;;;4994094;28;20031;-72
2022/12/02 01:37:41;;;;;;;2.72;1.90;;;17.70;75.20;;;;;;4994192;28;20026;-72
2022/12/02 01:40:07;;;;;;;1.95;1.70;;;17.70;75.20;;;;;;4993776;28;20030;-73
2022/12/02 01:42:33;;;;;;;2.00;1.80;;;17.60;75.20;;;;;;4976791;28;20030;-73
2022/12/02 01:44:59;;;;;;;2.15;1.90;;;17.60;75.20;;;;;;4976438;28;20390;-73
2022/12/02 01:47:24;;;;;;;3.13;1.90;;;17.60;75.30;;;;;;4976508;28;20525;-73
2022/12/02 01:49:51;;;;;;;1.95;1.70;;;17.60;75.20;;;;;;4976517;28;20562;-73
2022/12/02 01:52:17;;;;;;;2.95;1.88;;;17.60;75.20;;;;;;4976643;28;20022;-73
2022/12/02 01:54:42;;;;;;;2.20;1.85;;;17.60;75.20;;;;;;4976349;28;20030;-73
2022/12/02 01:57:13;;;;;;;3.70;1.70;;;17.60;75.30;;;;;;4976393;28;20034;-73
2022/12/02 01:59:42;;;;;;;2.10;1.83;;;17.70;75.40;;;;;;4976552;28;20026;-72
2022/12/02 02:02:23;;;;;;;2.22;1.92;;;17.60;75.30;;;;;;4976280;28;20031;-72
2022/12/02 02:04:49;;;;;;;1.70;1.60;;;17.70;75.20;;;;;;4976273;28;20062;-72
2022/12/02 02:07:15;;;;;;;4.18;1.92;;;17.70;75.20;;;;;;4993056;28;20069;-72
2022/12/02 02:09:40;;;;;;;2.20;2.00;;;17.70;75.20;;;;;;4972881;28;20114;-72
2022/12/02 02:12:06;;;;;;;2.85;1.85;;;17.70;75.10;;;;;;4956760;28;20497;-72
2022/12/02 02:14:31;;;;;;;3.40;1.90;;;17.70;75.10;;;;;;4972912;28;20042;-72
2022/12/02 02:16:57;;;;;;;3.17;2.10;;;17.70;75.10;;;;;;4974156;28;20101;-72
2022/12/02 02:19:23;;;;;;;3.08;1.98;;;17.70;75.00;;;;;;4975720;28;20056;-72
2022/12/02 02:21:50;;;;;;;1.98;1.60;;;17.70;75.00;;;;;;4993355;28;20037;-72
2022/12/02 02:24:15;;;;;;;2.00;1.80;;;17.70;75.00;;;;;;4959707;28;20085;-73
2022/12/02 02:26:41;;;;;;;4.03;1.80;;;17.70;75.00;;;;;;4993515;28;20026;-73
2022/12/02 02:29:06;;;;;;;2.30;2.10;;;17.70;75.00;;;;;;4993553;28;20022;-73
2022/12/02 02:31:32;;;;;;;3.28;2.17;;;17.70;75.00;;;;;;4959783;28;20477;-73
2022/12/02 02:33:58;;;;;;;2.35;1.80;;;17.70;75.00;;;;;;4959840;28;20035;-73
2022/12/02 02:36:23;;;;;;;2.28;2.00;;;17.70;74.90;;;;;;4993151;28;20030;-73
2022/12/02 02:38:49;;;;;;;2.03;1.80;;;17.70;74.90;;;;;;4975967;28;20034;-73
2022/12/02 02:41:14;;;;;;;2.97;2.00;;;17.70;74.90;;;;;;4993535;28;20534;-73
2022/12/02 02:43:40;;;;;;;2.15;1.95;;;17.70;75.00;;;;;;4977868;28;20030;-73
2022/12/02 02:46:06;;;;;;;2.80;2.17;;;17.70;75.00;;;;;;4979833;28;20084;-73
2022/12/02 02:48:31;;;;;;;2.65;1.92;;;17.70;75.00;;;;;;4980063;28;20035;-73
2022/12/02 02:50:57;;;;;;;2.25;2.05;;;17.70;75.00;;;;;;4963326;28;20054;-73
2022/12/02 02:53:23;;;;;;;3.10;2.00;;;17.70;75.00;;;;;;4979805;28;20461;-73
2022/12/02 02:55:49;;;;;;;2.20;2.00;;;17.70;75.10;;;;;;4979829;28;20117;-73
2022/12/02 02:58:15;;;;;;;2.10;1.90;;;17.60;75.00;;;;;;4979452;28;20050;-73
2022/12/02 03:00:56;;;;;;;1.73;1.63;;;17.70;75.10;;;;;;4996956;28;20026;-73
2022/12/02 03:03:23;;;;;;;2.50;2.05;;;17.70;75.10;;;;;;4979607;28;20505;-73
2022/12/02 03:05:50;;;;;;;3.80;1.80;;;17.60;75.10;;;;;;4978819;28;20026;-73
2022/12/02 03:08:15;;;;;;;2.55;2.15;;;17.60;75.10;;;;;;4979308;28;20027;-73
2022/12/02 03:10:41;;;;;;;2.83;2.03;;;17.60;75.20;;;;;;4979450;28;20400;-73
2022/12/02 03:13:07;;;;;;;2.53;2.13;;;17.70;75.20;;;;;;4979255;28;20029;-73
2022/12/02 03:15:32;;;;;;;3.55;2.10;;;17.60;75.20;;;;;;4979261;28;20034;-72
2022/12/02 03:17:58;;;;;;;1.98;1.63;;;17.70;75.30;;;;;;4978942;28;20057;-72
2022/12/02 03:20:23;;;;;;;2.58;1.80;;;17.60;75.20;;;;;;4996359;28;20042;-72
2022/12/02 03:22:49;;;;;;;2.20;2.00;;;17.60;75.20;;;;;;4978968;28;20178;-72
2022/12/02 03:25:15;;;;;;;2.20;1.88;;;17.60;75.20;;;;;;4996356;28;20030;-72
2022/12/02 03:27:40;;;;;;;2.42;1.90;;;17.60;75.20;;;;;;4979207;28;20022;-72
2022/12/02 03:30:07;;;;;;;2.45;1.90;;;17.60;75.20;;;;;;4978817;28;20054;-72
2022/12/02 03:32:32;;;;;;;2.50;2.10;;;17.60;75.20;;;;;;4978755;28;20026;-72
2022/12/02 03:34:58;;;;;;;2.30;2.10;;;17.60;75.20;;;;;;4978664;28;20030;-72
2022/12/02 03:37:24;;;;;;;2.50;1.90;;;17.60;75.30;;;;;;4996357;28;20113;-72
2022/12/02 03:39:50;;;;;;;2.25;1.98;;;17.60;75.30;;;;;;4978817;28;20030;-72
2022/12/02 03:42:15;;;;;;;2.10;1.90;;;17.60;75.30;;;;;;4978664;28;20034;-72
2022/12/02 03:44:41;;;;;;;3.20;2.47;;;17.60;75.30;;;;;;4977773;28;20062;-73
2022/12/02 03:47:06;;;;;;;2.80;2.13;;;17.60;75.00;;;;;;4994715;28;20018;-72
2022/12/02 03:49:32;;;;;;;3.20;2.30;;;17.60;75.20;;;;;;4977469;28;20026;-72
2022/12/02 03:51:58;;;;;;;4.10;2.85;;;17.60;75.10;;;;;;4977310;28;20113;-73
2022/12/02 03:54:23;;;;;;;3.65;2.67;;;17.60;75.00;;;;;;4976672;28;20031;-72
2022/12/02 03:56:49;;;;;;;12.00;3.03;;;17.60;75.00;;;;;;4977335;28;20101;-73
2022/12/02 03:59:22;;;;;;;10.82;3.22;;;17.60;75.00;;;;;;4977324;28;20058;-73
2022/12/02 04:01:48;;;;;;;3.00;2.67;;;17.60;75.10;;;;;;4977472;28;20018;-73
2022/12/02 04:04:14;;;;;;;4.68;2.97;;;17.60;75.00;;;;;;4977199;28;20088;-73
2022/12/02 04:06:39;;;;;;;4.65;2.58;;;17.60;75.00;;;;;;4994516;28;20046;-72
2022/12/02 04:09:05;;;;;;;4.15;2.60;;;17.60;75.10;;;;;;4994525;28;20037;-73
2022/12/02 04:11:31;;;;;;;2.75;2.38;;;17.60;75.10;;;;;;4977186;28;20073;-73
2022/12/02 04:13:56;;;;;;;6.25;2.42;;;17.60;75.20;;;;;;4994651;28;20139;-73
2022/12/02 04:16:22;;;;;;;5.25;2.97;;;17.60;75.20;;;;;;4977120;28;20118;-73
2022/12/02 04:18:47;;;;;;;6.55;2.80;;;17.60;75.10;;;;;;4977092;28;20033;-72
2022/12/02 04:21:13;;;;;;;4.93;2.67;;;17.60;75.20;;;;;;4976800;28;20028;-73
2022/12/02 04:23:39;;;;;;;5.75;3.00;;;17.60;75.10;;;;;;4994603;28;20022;-72
2022/12/02 04:26:05;;;;;;;4.60;2.55;;;17.60;75.20;;;;;;4976841;28;20034;-73
2022/12/02 04:28:30;;;;;;;3.88;2.45;;;17.60;75.20;;;;;;4976990;28;20026;-73
2022/12/02 04:30:56;;;;;;;3.03;2.28;;;17.60;75.20;;;;;;4976305;28;20026;-72
2022/12/02 04:33:22;;;;;;;5.18;2.70;;;17.60;75.20;;;;;;4965910;28;20073;-72
2022/12/02 04:35:47;;;;;;;4.18;2.40;;;17.60;75.20;;;;;;4994063;28;20030;-73
2022/12/02 04:38:13;;;;;;;2.80;2.45;;;17.60;75.20;;;;;;4993671;28;20034;-73
2022/12/02 04:40:39;;;;;;;3.53;2.65;;;17.60;75.20;;;;;;4992699;28;20026;-73
2022/12/02 04:43:04;;;;;;;2.60;2.40;;;17.60;75.30;;;;;;4992423;28;20117;-73
2022/12/02 04:45:30;;;;;;;5.22;2.75;;;17.60;75.30;;;;;;4993487;28;20018;-73
2022/12/02 04:47:55;;;;;;;4.40;2.40;;;17.60;75.30;;;;;;4993379;28;20028;-73
2022/12/02 04:50:21;;;;;;;2.53;2.33;;;17.60;75.30;;;;;;4992251;28;20087;-73
2022/12/02 04:52:47;;;;;;;3.17;2.53;;;17.60;75.20;;;;;;4993454;28;20076;-73
2022/12/02 04:55:12;;;;;;;2.83;2.55;;;17.60;75.20;;;;;;4992293;28;20054;-72
2022/12/02 04:57:38;;;;;;;3.40;2.55;;;17.60;75.20;;;;;;4976346;28;20121;-73
2022/12/02 05:00:05;;;;;;;4.65;2.67;;;17.60;75.20;;;;;;4993422;28;20034;-72
2022/12/02 05:02:30;;;;;;;2.90;2.60;;;17.60;75.20;;;;;;4975824;28;20647;-73
2022/12/02 05:04:56;;;;;;;2.95;2.53;;;17.60;75.30;;;;;;4993161;28;20068;-73
2022/12/02 05:07:21;;;;;;;4.72;2.72;;;17.60;75.30;;;;;;4991788;28;20042;-72
2022/12/02 05:09:47;;;;;;;3.88;2.47;;;17.60;75.30;;;;;;4975926;28;20026;-73
2022/12/02 05:12:13;;;;;;;3.30;2.47;;;17.60;75.30;;;;;;4992975;28;20034;-73
2022/12/02 05:14:38;;;;;;;4.38;2.70;;;17.60;75.30;;;;;;4975788;28;20026;-73
2022/12/02 05:17:04;;;;;;;2.92;2.38;;;17.60;75.30;;;;;;4992861;28;20042;-73
2022/12/02 05:19:29;;;;;;;4.50;2.83;;;17.60;75.30;;;;;;4992913;28;20069;-73
2022/12/02 05:21:55;;;;;;;3.47;2.60;;;17.60;75.30;;;;;;4993023;28;20555;-73
2022/12/02 05:24:21;;;;;;;3.30;2.88;;;17.60;75.30;;;;;;4975542;28;20026;-73
2022/12/02 05:26:46;;;;;;;3.53;2.60;;;17.60;75.30;;;;;;4992833;28;20031;-73
2022/12/02 05:29:12;;;;;;;3.13;2.60;;;17.60;75.30;;;;;;4975293;28;20432;-72
2022/12/02 05:31:38;;;;;;;3.00;2.33;;;17.50;75.30;;;;;;4959049;28;20034;-72
2022/12/02 05:34:03;;;;;;;3.50;2.67;;;17.60;75.40;;;;;;4992768;28;20066;-72
2022/12/02 05:36:29;;;;;;;3.20;2.63;;;17.60;75.40;;;;;;4992610;28;20109;-72
2022/12/02 05:38:54;;;;;;;5.55;2.90;;;17.60;75.40;;;;;;4992673;28;20030;-72
2022/12/02 05:41:20;;;;;;;2.90;2.65;;;17.50;75.30;;;;;;4992426;28;20030;-72
2022/12/02 05:43:46;;;;;;;3.92;2.67;;;17.50;75.30;;;;;;4975329;28;20034;-72
2022/12/02 05:46:18;;;;;;;3.97;2.63;;;17.50;75.40;;;;;;4992347;28;20439;-72
2022/12/02 05:48:44;;;;;;;;;;;17.50;75.30;;;;;;4975793;28;20424;-72
2022/12/02 05:51:14;;;;;;;2.88;2.60;;;17.50;75.40;;;;;;4992411;28;19910;-72
2022/12/02 05:53:40;;;;;;;3.90;2.80;;;17.50;75.40;;;;;;4975298;28;20026;-72
2022/12/02 05:56:15;;;;;;;3.85;2.80;;;17.50;75.40;;;;;;4992480;28;20030;-73
2022/12/02 05:58:41;;;;;;;3.47;2.70;;;17.50;75.40;;;;;;4975909;28;20026;-73
2022/12/02 06:01:25;;;;;;;4.82;2.50;;;17.50;75.40;;;;;;4974854;28;20105;-73
2022/12/02 06:03:51;;;;;;;3.70;2.78;;;17.50;75.40;;;;;;4992353;28;20026;-72
2022/12/02 06:06:18;;;;;;;3.80;2.63;;;17.50;75.40;;;;;;4979444;28;20134;-73
2022/12/02 06:08:44;;;;;;;5.50;2.40;;;17.50;75.40;;;;;;4967228;28;20044;-73
2022/12/02 06:11:28;;;;;;;3.28;2.80;;;17.50;75.40;;;;;;4992757;28;20540;-72
2022/12/02 06:13:58;;;;;;;4.18;2.67;;;17.50;75.40;;;;;;4975645;28;20515;-72
2022/12/02 06:16:26;;;;;;;3.40;2.80;;;17.50;75.40;;;;;;4976076;28;20101;-72
2022/12/02 06:18:52;;;;;;;2.88;2.50;;;17.50;75.40;;;;;;4992789;28;20037;-73
2022/12/02 06:21:18;;;;;;;3.08;2.30;;;17.50;75.40;;;;;;4992807;28;20027;-73
2022/12/02 06:23:46;;;;;;;4.35;2.67;;;17.50;75.40;;;;;;4975689;28;20500;-73
2022/12/02 06:26:16;;;;;;;3.25;2.55;;;17.50;75.40;;;;;;4975677;28;20566;-72
2022/12/02 06:28:43;;;;;;;2.88;2.40;;;17.50;75.40;;;;;;4975374;28;20022;-72
2022/12/02 06:31:17;;;;;;;3.50;3.17;;;17.50;75.40;;;;;;4975726;28;20114;-73
2022/12/02 06:33:44;;;;;;;3.63;2.97;;;17.50;75.50;;;;;;4975568;28;20022;-72
2022/12/02 06:36:15;;;;;;;5.07;2.90;;;17.50;75.50;;;;;;4975372;28;20014;-73
2022/12/02 06:38:48;;;;;;;2.90;2.60;;;17.50;75.40;;;;;;4975542;28;20026;-73
2022/12/02 06:41:16;;;;;;;4.65;2.90;;;17.50;75.40;;;;;;4975373;28;20027;-73
2022/12/02 06:45:03;;;;;;;3.72;2.75;;;17.50;75.40;;;;;;4975399;28;20026;-73
2022/12/02 06:46:27;;;;;;;3.90;2.65;;;17.50;75.40;;;;;;4978059;28;20026;-72
2022/12/02 06:48:52;;;;;;;3.67;2.83;;;17.50;75.40;;;;;;4975374;28;20508;-73
2022/12/02 06:51:18;;;;;;;3.42;2.90;;;17.50;75.40;;;;;;4975395;28;20076;-73
2022/12/02 06:53:44;;;;;;;2.80;2.50;;;17.50;75.40;;;;;;4975567;28;20508;-73
2022/12/02 06:56:12;;;;;;;3.33;2.70;;;17.50;75.50;;;;;;4992000;28;20031;-72
2022/12/02 06:59:00;;;;;;;3.13;2.83;;;17.50;75.60;;;;;;4974241;28;20018;-72
2022/12/02 07:01:31;;;;;;;4.00;2.33;;;17.50;75.60;;;;;;4960865;28;20389;-72
2022/12/02 07:04:08;;;;;;;3.00;2.70;;;17.50;75.60;;;;;;4976569;28;20023;-72
2022/12/02 07:06:44;;;;;;;4.68;3.10;;;17.50;75.60;;;;;;4992640;28;20181;-72
2022/12/02 07:09:26;;;;;;;2.88;2.55;;;17.50;75.50;;;;;;4975510;28;20034;-71
2022/12/02 07:11:52;;;;;;;2.85;2.55;;;17.50;75.60;;;;;;4975543;28;20518;-73
2022/12/02 07:14:18;;;;;;;3.30;2.85;;;17.50;75.50;;;;;;4975419;28;20034;-72
2022/12/02 07:16:44;;;;;;;6.55;5.57;;;17.50;75.40;;;;;;4993158;28;20125;-72
2022/12/02 07:19:18;;;;;;;8.23;5.80;;;17.40;73.30;;;;;;4992063;28;20408;-72
2022/12/02 07:21:43;;;;;;;7.88;4.95;;;17.40;72.20;;;;;;4972394;28;20026;-72
2022/12/02 07:24:12;;;;;;;7.07;5.00;;;17.30;72.40;;;;;;4973398;28;20035;-72
2022/12/02 07:26:38;;;;;;;7.45;4.82;;;17.30;72.40;;;;;;4972128;28;20026;-72
2022/12/02 07:29:04;;;;;;;6.07;5.13;;;17.30;72.20;;;;;;4972236;28;20015;-72
2022/12/02 07:31:29;;;;;;;6.38;5.20;;;17.30;72.20;;;;;;4987246;28;20428;-72
2022/12/02 07:33:55;;;;;;;6.30;5.03;;;17.30;72.00;;;;;;4977962;28;20092;-72
2022/12/02 07:36:21;;;;;;;7.70;5.75;;;17.20;71.90;;;;;;4977579;28;20019;-72
2022/12/02 07:38:46;;;;;;;8.00;5.25;;;17.20;71.80;;;;;;4995007;28;20101;-72
2022/12/02 07:41:12;;;;;;;7.50;5.72;;;17.20;71.60;;;;;;4994664;28;20105;-72
2022/12/02 07:43:38;;;;;;;6.65;5.68;;;17.20;71.50;;;;;;4994690;28;20049;-72
2022/12/02 07:46:04;;;;;;;8.05;5.82;;;17.20;71.50;;;;;;4976908;28;20085;-72
2022/12/02 07:48:30;;;;;;;9.88;6.15;;;17.20;71.30;;;;;;4943455;28;20330;-72
2022/12/02 07:50:55;;;;;;;22.75;7.55;;;17.10;71.50;;;;;;4976033;28;20023;-71
2022/12/02 07:53:21;;;;;;;33.28;8.50;;;17.10;71.60;;;;;;4975752;28;20106;-72
2022/12/02 07:55:47;;;;;;;23.77;7.70;;;17.10;71.90;;;;;;4974821;28;20031;-72
2022/12/02 07:58:12;;;;;;;23.30;8.77;;;17.20;72.10;;;;;;4974827;28;20066;-72
2022/12/02 08:00:38;;;;;;;26.98;9.00;;;17.10;72.10;;;;;;4957874;28;20125;-72
2022/12/02 08:03:03;;;;;;;16.40;8.23;;;17.10;72.20;;;;;;4974908;28;20061;-72
2022/12/02 08:05:29;;;;;;;18.95;8.75;;;17.10;72.20;;;;;;4975689;28;20114;-72
2022/12/02 08:07:55;;;;;;;23.77;8.93;;;17.10;72.10;;;;;;4979939;28;20390;-72
2022/12/02 08:10:21;;;;;;;20.77;8.10;;;17.10;73.10;;;;;;4973296;28;20021;-72
2022/12/02 08:12:46;;;;;;;23.17;9.23;;;17.10;72.10;;;;;;4970072;28;20543;-72
2022/12/02 08:15:13;;;;;;;21.77;9.25;;;17.10;72.10;;;;;;4963654;28;20065;-72
2022/12/02 08:17:38;;;;;;;19.77;8.02;;;17.10;72.10;;;;;;4957441;28;20019;-72
2022/12/02 08:20:05;;;;;;;19.27;8.95;;;17.10;72.00;;;;;;4976510;28;20030;-72
2022/12/02 08:22:31;;;;;;;17.35;8.70;;;17.10;72.00;;;;;;4977472;28;20042;-72
2022/12/02 08:24:57;;;;;;;19.15;8.70;;;17.10;71.90;;;;;;4994591;28;20030;-72
2022/12/02 08:27:22;;;;;;;19.15;8.55;;;17.10;71.90;;;;;;4985775;28;20031;-72
2022/12/02 08:29:49;;;;;;;17.05;8.52;;;17.10;71.80;;;;;;4958057;28;20102;-72
2022/12/02 08:32:18;;;;;;;19.80;8.70;;;17.00;71.80;;;;;;4975211;28;20145;-72
2022/12/02 08:34:44;;;;;;;16.45;8.52;;;17.10;71.90;;;;;;4958614;28;20058;-72
2022/12/02 08:37:09;;;;;;;24.10;8.38;;;17.00;71.80;;;;;;4958183;28;20492;-72
2022/12/02 08:39:35;;;;;;;20.13;8.75;;;17.00;71.80;;;;;;4957620;28;20509;-72
2022/12/02 08:42:01;;;;;;;22.33;8.70;;;17.00;71.80;;;;;;4957557;28;20031;-72
2022/12/02 08:44:27;;;;;;;18.52;8.35;;;17.10;71.80;;;;;;4984010;28;20480;-72
2022/12/02 08:46:52;;;;;;;16.55;8.43;;;17.00;71.70;;;;;;4977121;28;20488;-72
2022/12/02 08:49:18;;;;;;;17.83;8.85;;;17.00;71.70;;;;;;4977120;28;20105;-72
2022/12/02 08:51:44;;;;;;;19.67;9.15;;;17.00;71.80;;;;;;4994224;28;20029;-72
2022/12/02 08:54:09;;;;;;;19.00;7.85;;;17.00;71.70;;;;;;4994206;28;20489;-72
2022/12/02 08:56:35;;;;;;;19.10;7.80;;;17.00;71.70;;;;;;4994317;28;20023;-72
2022/12/02 08:59:01;;;;;;;17.08;8.15;;;17.00;71.70;;;;;;4994638;28;20019;-72
2022/12/02 09:01:27;;;;;;;17.27;7.97;;;17.00;71.70;;;;;;4976801;28;20019;-72
2022/12/02 09:03:52;;;;;;;18.38;8.25;;;17.00;71.80;;;;;;4976700;28;20472;-72
2022/12/02 09:06:18;;;;;;;17.05;8.30;;;17.00;71.70;;;;;;4993951;28;20057;-72
2022/12/02 09:08:43;;;;;;;15.07;7.28;;;17.00;71.70;;;;;;4976410;28;20026;-72
2022/12/02 09:11:09;;;;;;;13.75;8.07;;;16.90;71.70;;;;;;4994142;28;20030;-72
2022/12/02 09:13:35;;;;;;;16.65;8.10;;;17.00;71.70;;;;;;4976520;28;20508;-72
2022/12/02 09:16:00;;;;;;;13.07;7.90;;;16.90;71.70;;;;;;4976642;28;20105;-72
2022/12/02 09:18:26;;;;;;;12.10;7.68;;;17.00;71.70;;;;;;4968607;28;20019;-72
2022/12/02 09:20:52;;;;;;;14.82;7.90;;;17.00;71.70;;;;;;4974264;28;20026;-72
2022/12/02 09:23:17;;;;;;;12.43;7.75;;;17.00;71.70;;;;;;4941041;28;20074;-72
2022/12/02 09:25:43;;;;;;;11.52;7.35;;;17.00;71.70;;;;;;4974246;28;20038;-72
2022/12/02 09:28:08;;;;;;;13.30;7.80;;;16.90;71.70;;;;;;4957094;28;20029;-72
2022/12/02 09:30:34;;;;;;;12.80;7.85;;;16.90;71.70;;;;;;4956987;28;20134;-72
2022/12/02 09:33:00;;;;;;;14.45;7.20;;;16.90;71.60;;;;;;4957004;28;20023;-72
2022/12/02 09:35:25;;;;;;;15.63;7.47;;;16.90;71.70;;;;;;4974159;28;20035;-72
2022/12/02 09:37:51;;;;;;;12.50;7.43;;;16.90;71.70;;;;;;4974054;28;20081;-72
2022/12/02 09:40:17;;;;;;;13.98;8.05;;;16.90;71.60;;;;;;4956854;28;20035;-72
2022/12/02 09:42:42;;;;;;;10.48;7.18;;;16.90;71.60;;;;;;4974061;28;20027;-72
2022/12/02 09:45:08;;;;;;;11.88;7.97;;;16.90;71.80;;;;;;4940921;28;20073;-72
2022/12/02 09:47:34;;;;;;;10.20;6.80;;;16.90;71.70;;;;;;4956676;28;20027;-72
2022/12/02 09:49:59;;;;;;;12.35;7.57;;;16.90;71.70;;;;;;4940802;28;20117;-72
2022/12/02 09:52:25;;;;;;;15.00;7.43;;;16.90;71.70;;;;;;4955958;28;20023;-72
2022/12/02 09:54:55;;;;;;;12.05;7.25;;;16.90;71.60;;;;;;4940608;28;20125;-72
2022/12/02 09:57:24;;;;;;;12.80;7.50;;;16.90;71.50;;;;;;4941407;28;20041;-72
2022/12/02 09:59:50;;;;;;;12.60;7.22;;;16.90;71.70;;;;;;4941052;28;20536;-72
2022/12/02 10:02:43;;;;;;;10.35;6.93;;;16.90;72.70;;;;;;4956480;28;20027;-72
2022/12/02 10:05:16;;;;;;;;;;;16.90;71.50;;;;;;4954588;28;20050;-72
2022/12/02 10:07:42;;;;;;;9.00;6.63;;;16.90;71.60;;;;;;4958788;28;20012;-72
2022/12/02 10:10:10;;;;;;;9.88;6.25;;;16.90;71.60;;;;;;4975907;28;20014;-72
2022/12/02 10:12:36;;;;;;;10.68;7.00;;;16.90;71.50;;;;;;4975519;28;20396;-72
2022/12/02 10:15:02;;;;;;;10.07;6.97;;;16.90;71.70;;;;;;4975994;28;20121;-72
2022/12/02 10:17:28;;;;;;;10.82;7.13;;;16.90;71.60;;;;;;4975641;28;20034;-72
2022/12/02 10:19:53;;;;;;;10.65;6.50;;;16.90;71.60;;;;;;4975612;28;20022;-72
2022/12/02 10:22:20;;;;;;;10.48;6.93;;;16.90;71.50;;;;;;4992953;28;20030;-72
2022/12/02 10:24:45;;;;;;;9.07;6.53;;;16.90;71.50;;;;;;4975564;28;20034;-72
2022/12/02 10:27:28;;;;;;;9.70;6.43;;;16.90;71.50;;;;;;4975870;28;20027;-72
2022/12/02 10:29:54;;;;;;;10.23;6.22;;;16.90;71.60;;;;;;4975810;28;20523;-72
2022/12/02 10:32:26;;;;;;;9.38;6.05;;;16.90;71.70;;;;;;4975726;28;20110;-72
2022/12/02 10:35:08;;;;;;;8.52;6.03;;;16.90;71.50;;;;;;4975483;28;20037;-72
2022/12/02 10:37:34;;;;;;;10.90;6.18;;;16.90;71.50;;;;;;4976062;28;20045;-72
2022/12/02 10:40:20;;;;;;;8.25;6.18;;;16.90;71.40;;;;;;4975243;28;20027;-72
2022/12/02 10:42:45;;;;;;;9.57;6.50;;;16.90;71.50;;;;;;4975478;28;20030;-72
2022/12/02 10:45:21;;;;;;;8.60;6.07;;;16.90;71.40;;;;;;4975570;28;20023;-72
2022/12/02 10:47:48;;;;;;;11.05;6.20;;;16.90;71.40;;;;;;4992660;28;20046;-72
2022/12/02 10:50:21;;;;;;;8.50;6.13;;;16.90;71.40;;;;;;4975213;28;20492;-72
2022/12/02 10:52:55;;;;;;;7.82;5.78;;;16.90;71.40;;;;;;4992478;28;20084;-72
2022/12/02 10:55:21;;;;;;;9.15;5.93;;;16.90;71.40;;;;;;4975344;28;20118;-72
2022/12/02 10:57:49;;;;;;;7.28;6.00;;;16.90;71.40;;;;;;4975316;28;20117;-72
2022/12/02 11:00:22;;;;;;;7.88;5.70;;;16.90;71.40;;;;;;4975466;28;20077;-72
2022/12/02 11:02:58;;;;;;;6.55;5.57;;;16.90;71.30;;;;;;4975130;28;20026;-72
2022/12/02 11:05:30;;;;;;;7.63;5.22;;;16.90;71.30;;;;;;4961779;28;20400;-72
2022/12/02 11:08:21;;;;;;;6.90;5.47;;;16.90;71.30;;;;;;4978748;28;20463;-72
2022/12/02 11:10:49;;;;;;;10.10;6.10;;;16.90;71.30;;;;;;4979071;28;20052;-72
2022/12/02 11:13:14;;;;;;;7.25;5.47;;;16.90;71.20;;;;;;4978892;28;20030;-72
2022/12/02 11:15:44;;;;;;;6.43;5.60;;;16.90;71.40;;;;;;4996074;28;20052;-72
2022/12/02 11:18:30;;;;;;;8.65;6.00;;;16.90;71.30;;;;;;4995875;28;20156;-72
2022/12/02 11:21:02;;;;;;;7.70;5.18;;;16.90;71.30;;;;;;4988703;28;20540;-72
2022/12/02 11:23:28;;;;;;;6.00;5.15;;;16.90;71.20;;;;;;4995935;28;20030;-72
2022/12/02 11:26:15;;;;;;;7.32;5.18;;;16.90;71.20;;;;;;4978578;28;20580;-72
2022/12/02 11:28:47;;;;;;;7.57;6.05;;;16.90;71.20;;;;;;4962188;28;20408;-72
2022/12/02 11:31:13;;;;;;;6.45;4.57;;;16.90;71.20;;;;;;4978739;28;20045;-72
2022/12/02 11:33:48;;;;;;;7.63;5.22;;;16.90;71.20;;;;;;4995840;28;20476;-72
2022/12/02 11:36:23;;;;;;;6.45;5.30;;;16.90;71.20;;;;;;4995905;28;20037;-72
2022/12/02 11:38:51;;;;;;;5.38;4.57;;;16.90;71.20;;;;;;4978747;28;20111;-72
2022/12/02 11:41:27;;;;;;;7.20;5.05;;;16.90;71.20;;;;;;4995749;28;20030;-72
2022/12/02 11:43:54;;;;;;;6.95;4.85;;;16.90;71.20;;;;;;4978601;28;20068;-72
2022/12/02 11:46:39;;;;;;;6.72;5.15;;;16.90;71.20;;;;;;4995858;28;20085;-72
2022/12/02 11:49:26;;;;;;;6.43;4.90;;;16.90;71.20;;;;;;4978028;28;20194;-72
2022/12/02 11:52:08;;;;;;;6.20;4.35;;;16.90;71.10;;;;;;4979414;28;20057;-72
2022/12/02 11:54:38;;;;;;;5.60;5.00;;;16.90;71.10;;;;;;4995769;28;20058;-72
2022/12/02 11:57:03;;;;;;;6.18;5.13;;;16.90;71.10;;;;;;4961850;28;20117;-72
2022/12/02 11:59:29;;;;;;;5.78;4.55;;;16.90;71.10;;;;;;4977972;28;20161;-72
2022/12/02 12:02:12;;;;;;;6.18;4.88;;;16.90;71.10;;;;;;4977886;28;20034;-72
2022/12/02 12:04:37;;;;;;;6.22;4.45;;;16.90;71.10;;;;;;4977950;28;20492;-72
2022/12/02 12:07:03;;;;;;;5.72;4.80;;;16.90;71.10;;;;;;4962617;28;20050;-72
2022/12/02 12:09:29;;;;;;;7.90;4.78;;;16.90;71.10;;;;;;4955094;28;20110;-72
2022/12/02 12:12:24;;;;;;;5.03;4.38;;;16.90;71.00;;;;;;4955219;29;20118;-72
2022/12/02 12:14:59;;;;;;;5.13;4.18;;;16.80;71.00;;;;;;4943717;29;20043;-72
2022/12/02 12:17:51;;;;;;;5.70;4.57;;;16.90;71.00;;;;;;4954328;28;20081;-72
2022/12/02 12:20:17;;;;;;;5.65;4.72;;;16.90;71.00;;;;;;4935472;29;20044;-72
2022/12/02 12:22:43;;;;;;;5.05;4.35;;;16.90;71.00;;;;;;4937019;29;20128;-72
2022/12/02 12:25:33;;;;;;;6.25;4.68;;;16.90;70.90;;;;;;4920054;29;20087;-72
2022/12/02 12:27:59;;;;;;;5.55;4.25;;;16.90;70.90;;;;;;4936977;29;20024;-72
2022/12/02 12:30:25;;;;;;;5.38;4.80;;;16.90;70.90;;;;;;4920187;29;20368;-72
2022/12/02 12:32:50;;;;;;;5.28;4.38;;;16.90;70.90;;;;;;4919562;29;20020;-72
2022/12/02 12:35:16;;;;;;;5.43;4.45;;;16.90;70.90;;;;;;4935729;29;20031;-72
2022/12/02 12:37:41;;;;;;;5.18;4.68;;;16.90;70.80;;;;;;4936901;29;20035;-72
2022/12/02 12:40:07;;;;;;;5.93;4.55;;;16.90;70.90;;;;;;4936683;29;20031;-72
2022/12/02 12:42:33;;;;;;;4.70;4.20;;;16.90;70.90;;;;;;4935527;29;20055;-72
2022/12/02 12:44:59;;;;;;;5.32;4.40;;;16.90;70.90;;;;;;4936446;29;20040;-72
2022/12/02 12:47:24;;;;;;;5.35;4.15;;;16.90;70.90;;;;;;4936367;29;20050;-72
2022/12/02 12:49:50;;;;;;;5.72;4.50;;;16.90;70.80;;;;;;4936688;29;20505;-72
2022/12/02 12:52:16;;;;;;;5.13;4.15;;;16.90;70.80;;;;;;4935531;29;20030;-72